Time;durP1;ratioP1;P1;durP2;ratioP2;P2;SDS_P1;SDS_P2;PMS_P1;PMS_P2;Temp;Humidity;BMP_temperature;BMP_pressure;BME280_temperature;BME280_humidity;BME280_pressure;Samples;Min_cycle;Max_cycle;Signal;HPM_P1;HPM_P2
2023/05/01 00:01:08;;;;;;;10.57;4.13;;;;;;;;;;6222018;23;20016;-63
2023/05/01 00:03:35;;;;;;;8.85;3.30;;;;;;;;;;6248295;23;20047;-63
2023/05/01 00:06:02;;;;;;;5.88;3.60;;;;;;;;;;6196104;23;20050;-63
2023/05/01 00:08:28;;;;;;;6.40;2.90;;;;;;;;;;6196434;23;20020;-63
2023/05/01 00:10:54;;;;;;;8.02;3.42;;;;;;;;;;6220790;23;20016;-63
2023/05/01 00:13:23;;;;;;;6.00;3.35;;;;;;;;;;6221630;23;20034;-63
2023/05/01 00:15:49;;;;;;;9.48;3.70;;;;;;;;;;6221763;23;20031;-63
2023/05/01 00:18:15;;;;;;;6.88;3.40;;;;;;;;;;6195903;23;20016;-62
2023/05/01 00:20:41;;;;;;;11.60;3.92;;;;;;;;;;6196378;23;20448;-62
2023/05/01 00:23:07;;;;;;;8.68;3.72;;;;;;;;;;6221792;23;20294;-62
2023/05/01 00:25:34;;;;;;;7.88;3.58;;;;;;;;;;6221022;23;20447;-63
2023/05/01 00:28:00;;;;;;;5.38;3.38;;;;;;;;;;6196918;23;20051;-63
2023/05/01 00:30:27;;;;;;;6.65;3.42;;;;;;;;;;6196146;23;20018;-62
2023/05/01 00:32:53;;;;;;;6.47;3.60;;;;;;;;;;6196270;23;20460;-63
2023/05/01 00:35:19;;;;;;;8.15;3.60;;;;;;;;;;6249034;23;20012;-63
2023/05/01 00:37:45;;;;;;;9.80;4.32;;;;;;;;;;6195977;23;20069;-62
2023/05/01 00:40:11;;;;;;;6.82;3.53;;;;;;;;;;6221615;23;20087;-63
2023/05/01 00:42:38;;;;;;;7.72;3.03;;;;;;;;;;6248023;23;20012;-62
2023/05/01 00:45:05;;;;;;;7.72;4.15;;;;;;;;;;6220698;23;20015;-62
2023/05/01 00:47:32;;;;;;;8.95;3.80;;;;;;;;;;6220907;23;20440;-62
2023/05/01 00:49:59;;;;;;;10.85;3.67;;;;;;;;;;6220752;23;20023;-62
2023/05/01 00:52:25;;;;;;;8.50;3.70;;;;;;;;;;6247899;23;20425;-62
2023/05/01 00:54:51;;;;;;;6.55;3.78;;;;;;;;;;6196046;23;20019;-62
2023/05/01 00:57:21;;;;;;;9.25;3.47;;;;;;;;;;6221162;23;20436;-63
2023/05/01 00:59:47;;;;;;;8.93;4.70;;;;;;;;;;6221801;23;20019;-63
2023/05/01 01:02:14;;;;;;;9.45;3.72;;;;;;;;;;6247786;23;20016;-63
2023/05/01 01:04:42;;;;;;;10.30;3.72;;;;;;;;;;6247728;23;20107;-63
2023/05/01 01:07:13;;;;;;;9.38;3.67;;;;;;;;;;6247779;23;20012;-62
2023/05/01 01:10:13;;;;;;;6.03;3.60;;;8.60;99.90;;;;;;6195426;23;20062;-63
2023/05/01 01:12:48;;;;;;;6.82;3.53;;;;;;;;;;6221112;23;20015;-62
2023/05/01 01:15:14;;;;;;;7.07;3.63;;;;;;;;;;6221653;23;20015;-62
2023/05/01 01:17:58;;;;;;;7.95;4.18;;;;;;;;;;6247694;23;20012;-63
2023/05/01 01:20:24;;;;;;;8.65;3.80;;;;;;;;;;6195905;23;20062;-63
2023/05/01 01:22:53;;;;;;;9.13;3.75;;;;;;;;;;6195599;23;20020;-63
2023/05/01 01:25:35;;;;;;;6.72;4.10;;;;;;;;;;6215100;23;20023;-63
2023/05/01 01:28:17;;;;;;;7.03;3.55;;;;;;;;;;6215442;23;20062;-63
2023/05/01 01:30:49;;;;;;;6.97;3.92;;;;;;;;;;6190394;23;20080;-63
2023/05/01 01:33:47;;;;;;;7.32;3.58;;;8.30;99.90;;;;;;6191602;23;20012;-63
2023/05/01 01:36:20;;;;;;;9.43;3.90;;;;;;;;;;6215332;23;20017;-63
2023/05/01 01:38:53;;;;;;;6.32;4.15;;;;;;;;;;6216744;23;20437;-63
2023/05/01 01:41:30;;;;;;;7.95;3.60;;;;;;;;;;6217922;23;20039;-63
2023/05/01 01:44:25;;;;;;;11.05;3.92;;;;;;;;;;6216715;23;20017;-63
2023/05/01 01:46:52;;;;;;;9.75;4.05;;;;;;;;;;6211102;23;20013;-63
2023/05/01 01:49:19;;;;;;;9.63;4.47;;;;;;;;;;6215586;23;20087;-63
2023/05/01 01:51:46;;;;;;;10.38;4.05;;;;;;;;;;6190745;23;20016;-63
2023/05/01 01:54:14;;;;;;;6.47;3.60;;;;;;;;;;6215589;23;20024;-63
2023/05/01 01:56:41;;;;;;;9.73;4.25;;;;;;;;;;6190412;23;20441;-63
2023/05/01 01:59:09;;;;;;;9.60;3.55;;;;;;;;;;6190528;23;20019;-63
2023/05/01 02:01:36;;;;;;;10.45;4.28;;;;;;;;;;6216918;23;20318;-63
2023/05/01 02:04:04;;;;;;;11.80;3.78;;;;;;;;;;6190183;23;20017;-63
2023/05/01 02:06:31;;;;;;;7.15;3.47;;;;;;;;;;6216098;23;20023;-63
2023/05/01 02:08:57;;;;;;;8.98;4.18;;;;;;;;;;6215383;23;20009;-63
2023/05/01 02:11:24;;;;;;;8.75;4.20;;;;;;;;;;6215309;23;20329;-63
2023/05/01 02:13:51;;;;;;;8.10;4.38;;;;;;;;;;6215320;23;20092;-63
2023/05/01 02:16:18;;;;;;;13.27;4.60;;;;;;;;;;6217436;23;20016;-63
2023/05/01 02:18:45;;;;;;;7.60;3.75;;;;;;;;;;6190434;23;20099;-63
2023/05/01 02:21:11;;;;;;;9.07;4.18;;;;;;;;;;6215222;23;20054;-63
2023/05/01 02:23:38;;;;;;;8.55;4.30;;;;;;;;;;6216883;23;20017;-63
2023/05/01 02:26:04;;;;;;;6.72;4.45;;;;;;;;;;6220052;23;20020;-63
2023/05/01 02:28:32;;;;;;;8.60;4.32;;;;;;;;;;6247259;23;20095;-62
2023/05/01 02:30:58;;;;;;;8.75;4.15;;;;;;;;;;6196050;23;20019;-62
2023/05/01 02:33:24;;;;;;;10.40;4.32;;;;;;;;;;6220007;23;20035;-62
2023/05/01 02:35:51;;;;;;;7.65;3.92;;;;;;;;;;6247173;23;20512;-63
2023/05/01 02:38:18;;;;;;;8.50;4.38;;;;;;;;;;6195020;23;20016;-62
2023/05/01 02:40:46;;;;;;;8.77;3.78;;;;;;;;;;6220107;23;20416;-63
2023/05/01 02:43:13;;;;;;;7.00;3.92;;;;;;;;;;6221143;23;20439;-63
2023/05/01 02:45:40;;;;;;;10.50;4.38;;;;;;;;;;6195655;23;20012;-63
2023/05/01 02:48:07;;;;;;;12.27;4.40;;;;;;;;;;6221056;23;20008;-63
2023/05/01 02:50:35;;;;;;;13.80;4.18;;;;;;;;;;6219999;23;20016;-63
2023/05/01 02:53:02;;;;;;;8.65;4.15;;;;;;;;;;6246405;23;20023;-63
2023/05/01 02:55:28;;;;;;;8.20;4.57;;;;;;;;;;6219425;23;20012;-63
2023/05/01 02:57:58;;;;;;;7.47;4.00;;;;;;;;;;6219882;23;20012;-63
2023/05/01 03:00:24;;;;;;;8.27;4.68;;;;;;;;;;6246717;23;20016;-63
2023/05/01 03:02:50;;;;;;;8.18;4.68;;;;;;;;;;6247399;23;20019;-63
2023/05/01 03:05:16;;;;;;;9.80;4.15;;;;;;;;;;6247300;23;20008;-63
2023/05/01 03:07:42;;;;;;;9.73;4.68;;;;;;;;;;6219615;23;20016;-63
2023/05/01 03:10:08;;;;;;;9.52;4.07;;;;;;;;;;6247403;23;20360;-63
2023/05/01 03:12:34;;;;;;;7.25;4.60;;;;;;;;;;6219949;23;20016;-63
2023/05/01 03:15:00;;;;;;;9.20;4.45;;;;;;;;;;6219550;23;20008;-63
2023/05/01 03:17:26;;;;;;;11.43;4.65;;;;;;;;;;6246633;23;20050;-63
2023/05/01 03:19:52;;;;;;;9.40;4.57;;;;;;;;;;6246651;23;20059;-63
2023/05/01 03:22:19;;;;;;;8.23;4.38;;;;;;;;;;6195163;23;20294;-63
2023/05/01 03:24:46;;;;;;;10.27;4.40;;;;;;;;;;6220193;23;20016;-63
2023/05/01 03:27:12;;;;;;;10.43;5.50;;;;;;;;;;6195204;23;20016;-63
2023/05/01 03:29:38;;;;;;;9.52;5.10;;;;;;;;;;6246677;23;20031;-63
2023/05/01 03:32:05;;;;;;;8.98;4.47;;;;;;;;;;6219901;23;20044;-63
2023/05/01 03:34:31;;;;;;;11.90;4.90;;;;;;;;;;6248467;23;20019;-63
2023/05/01 03:36:57;;;;;;;12.45;5.30;;;;;;;;;;6221916;23;20009;-63
2023/05/01 03:39:23;;;;;;;8.82;4.63;;;;;;;;;;6248217;23;20324;-63
2023/05/01 03:41:49;;;;;;;6.90;3.85;;;;;;;;;;6221801;23;20019;-63
2023/05/01 03:44:15;;;;;;;8.25;4.93;;;;;;;;;;6222690;23;20008;-63
2023/05/01 03:46:43;;;;;;;11.50;4.68;;;;;;;;;;6221786;23;20012;-63
2023/05/01 03:49:09;;;;;;;8.80;4.25;;;;;;;;;;6248448;23;20086;-63
2023/05/01 03:51:35;;;;;;;9.60;4.45;;;;;;;;;;6196541;23;20012;-63
2023/05/01 03:54:01;;;;;;;8.38;4.47;;;;;;;;;;6248433;23;20361;-63
2023/05/01 03:56:27;;;;;;;8.13;4.28;;;;;;;;;;6221645;23;20016;-63
2023/05/01 03:58:53;;;;;;;13.23;5.20;;;;;;;;;;6221318;23;20336;-63
2023/05/01 04:01:19;;;;;;;9.27;4.85;;;;;;;;;;6248425;23;20085;-63
2023/05/01 04:03:47;;;;;;;8.23;4.75;;;;;;;;;;6222277;23;20369;-63
2023/05/01 04:06:13;;;;;;;11.52;5.15;;;;;;;;;;6221646;23;20066;-63
2023/05/01 04:08:39;;;;;;;11.52;5.28;;;;;;;;;;6248305;23;20070;-63
2023/05/01 04:11:05;;;;;;;9.63;4.75;;;;;;;;;;6221435;23;20014;-63
2023/05/01 04:13:34;;;;;;;12.98;5.05;;;;;;;;;;6196406;23;20122;-63
2023/05/01 04:16:00;;;;;;;10.68;5.07;;;;;;;;;;6247678;23;20095;-63
2023/05/01 04:18:26;;;;;;;11.48;4.80;;;;;;;;;;6248780;23;20012;-63
2023/05/01 04:20:52;;;;;;;9.57;4.68;;;;;;;;;;6248533;23;20082;-63
2023/05/01 04:23:19;;;;;;;8.43;4.75;;;;;;;;;;6247727;23;20322;-64
2023/05/01 04:25:46;;;;;;;13.65;5.05;;;;;;;;;;6221015;23;20321;-63
2023/05/01 04:28:12;;;;;;;8.27;4.47;;;;;;;;;;6197028;23;20062;-63
2023/05/01 04:30:38;;;;;;;14.25;6.90;;;;;;;;;;6221473;23;20374;-63
2023/05/01 04:33:13;;;;;;;8.90;4.80;;;;;;;;;;6220949;23;20376;-63
2023/05/01 04:35:41;;;;;;;10.00;5.18;;;;;;;;;;6222317;23;20016;-64
2023/05/01 04:38:07;;;;;;;11.07;5.38;;;;;;;;;;6221493;23;20066;-61
2023/05/01 04:40:34;;;;;;;11.30;4.60;;;;;;;;;;6221633;23;20020;-62
2023/05/01 04:43:00;;;;;;;10.02;4.68;;;;;;;;;;6221972;23;20091;-62
2023/05/01 04:45:26;;;;;;;8.77;4.60;;;;;;;;;;6247383;23;20008;-62
2023/05/01 04:47:52;;;;;;;10.32;4.85;;;;;;;;;;6247981;23;20015;-62
2023/05/01 04:50:18;;;;;;;10.50;5.10;;;;;;;;;;6221109;23;20047;-62
2023/05/01 04:52:44;;;;;;;9.45;4.97;;;;;;;;;;6197134;23;20012;-62
2023/05/01 04:57:48;;;;;;;12.30;4.65;;;;;;;;;;6247913;23;20020;-62
2023/05/01 05:00:15;;;;;;;15.82;5.00;;;;;;;;;;6247816;23;20019;-62
2023/05/01 05:02:40;;;;;;;11.75;5.13;;;;;;;;;;6221085;23;20035;-62
2023/05/01 05:05:07;;;;;;;9.38;4.85;;;;;;;;;;6247679;23;20417;-62
2023/05/01 05:07:33;;;;;;;8.27;4.50;;;;;;;;;;6246134;23;20486;-62
2023/05/01 05:09:59;;;;;;;10.85;4.70;;;;;;;;;;6219751;23;20044;-63
2023/05/01 05:12:25;;;;;;;8.55;4.53;;;;;;;;;;6219982;23;20020;-62
2023/05/01 05:14:51;;;;;;;11.75;5.95;;;;;;;;;;6195847;23;20027;-62
2023/05/01 05:17:17;;;;;;;10.68;4.78;;;;;;;;;;6220427;23;20027;-63
2023/05/01 05:19:43;;;;;;;8.55;4.47;;;;;;;;;;6220856;23;20429;-62
2023/05/01 05:22:11;;;;;;;7.72;5.05;;;;;;;;;;6248270;23;20008;-62
2023/05/01 05:24:37;;;;;;;10.02;5.22;;;;;;;;;;6247481;23;20019;-62
2023/05/01 05:27:05;;;;;;;16.63;6.63;;;;;;;;;;6220017;23;20012;-62
2023/05/01 05:29:31;;;;;;;11.32;5.53;;;;;;;;;;6247032;23;20333;-63
2023/05/01 05:31:58;;;;;;;10.23;5.05;;;;;;;;;;6247454;23;20091;-62
2023/05/01 05:34:24;;;;;;;12.30;5.50;;;;;;;;;;6219739;23;20059;-64
2023/05/01 05:36:50;;;;;;;11.55;5.38;;;;;;;;;;6220490;23;20328;-62
2023/05/01 05:39:16;;;;;;;10.25;4.85;;;;;;;;;;6195038;23;20016;-63
2023/05/01 05:41:43;;;;;;;9.40;4.85;;;;;;;;;;6219785;23;20452;-62
2023/05/01 05:44:11;;;;;;;12.07;5.40;;;;;;;;;;6247375;23;20012;-62
2023/05/01 05:46:37;;;;;;;11.65;5.30;;;;;;;;;;6221482;23;20364;-62
2023/05/01 05:49:03;;;;;;;15.63;5.03;;;;;;;;;;6220684;23;20360;-64
2023/05/01 05:51:30;;;;;;;9.07;4.43;;;;;;;;;;6220426;23;20042;-62
2023/05/01 05:53:56;;;;;;;11.80;5.15;;;;;;;;;;6193692;23;20016;-63
2023/05/01 05:56:23;;;;;;;11.27;5.93;;;;;;;;;;6245401;23;20099;-63
2023/05/01 05:58:49;;;;;;;13.15;5.13;;;;;;;;;;6218832;23;20035;-63
2023/05/01 06:01:15;;;;;;;10.23;4.63;;;;;;;;;;6245732;23;20032;-63
2023/05/01 06:03:41;;;;;;;11.45;5.22;;;;;;;;;;6219638;23;20321;-63
2023/05/01 06:06:07;;;;;;;12.38;5.55;;;;;;;;;;6219237;23;20316;-63
2023/05/01 06:08:35;;;;;;;12.52;5.25;;;;;;;;;;6245486;23;20012;-63
2023/05/01 06:11:01;;;;;;;10.52;4.97;;;;;;;;;;6246053;23;20012;-63
2023/05/01 06:13:27;;;;;;;13.90;5.22;;;;;;;;;;6246581;23;20023;-62
2023/05/01 06:15:53;;;;;;;10.43;4.82;;;;;;;;;;6245469;23;20012;-63
2023/05/01 06:18:19;;;;;;;8.88;4.60;;;;;;;;;;6220127;23;20058;-63
2023/05/01 06:20:46;;;;;;;9.95;5.07;;;;;;;;;;6219862;23;20030;-63
2023/05/01 06:23:12;;;;;;;10.43;4.20;;;;;;;;;;6247366;23;20074;-63
2023/05/01 06:25:39;;;;;;;11.65;5.03;;;;;;;;;;6220464;23;20092;-63
2023/05/01 06:28:05;;;;;;;10.75;4.70;;;;;;;;;;6193090;23;20020;-62
2023/05/01 06:30:31;;;;;;;8.68;4.90;;;;;;;;;;6246326;23;20035;-63
2023/05/01 06:32:57;;;;;;;9.80;5.10;;;;;;;;;;6218830;23;20397;-62
2023/05/01 06:35:24;;;;;;;9.55;4.90;;;;;;;;;;6219039;23;20038;-62
2023/05/01 06:37:50;;;;;;;12.38;5.07;;;;;;;;;;6219485;23;20078;-62
2023/05/01 06:40:16;;;;;;;13.82;6.10;;;;;;;;;;6246109;23;20054;-63
2023/05/01 06:42:42;;;;;;;10.70;5.20;;;;;;;;;;6246264;23;20066;-62
2023/05/01 06:45:08;;;;;;;8.82;4.70;;;;;;;;;;6218306;23;20012;-62
2023/05/01 06:47:35;;;;;;;11.13;4.93;;;;;;;;;;6219591;23;20024;-62
2023/05/01 06:50:01;;;;;;;9.38;5.00;;;;;;;;;;6218948;23;20030;-62
2023/05/01 06:52:27;;;;;;;9.73;5.00;;;;;;;;;;6246207;23;20012;-62
2023/05/01 06:54:53;;;;;;;11.85;5.55;;;;;;;;;;6245024;23;20447;-62
2023/05/01 06:57:19;;;;;;;9.15;4.28;;;;;;;;;;6193276;23;20016;-63
2023/05/01 06:59:46;;;;;;;10.13;5.00;;;;;;;;;;6218917;23;20020;-62
2023/05/01 07:02:12;;;;;;;9.20;4.80;;;;;;;;;;6218963;23;20012;-62
2023/05/01 07:04:38;;;;;;;6.47;4.30;;;;;;;;;;6219079;23;20016;-62
2023/05/01 07:07:04;;;;;;;12.13;4.65;;;;;;;;;;6246111;23;20092;-62
2023/05/01 07:09:30;;;;;;;9.15;4.65;;;;;;;;;;6243085;23;20456;-62
2023/05/01 07:11:56;;;;;;;9.10;4.47;;;;;;;;;;6192631;23;20027;-62
2023/05/01 07:14:22;;;;;;;9.38;4.78;;;;;;;;;;6245359;23;20452;-62
2023/05/01 07:16:48;;;;;;;6.63;4.18;;;;;;;;;;6246234;23;20012;-62
2023/05/01 07:19:14;;;;;;;8.60;4.13;;;;;;;;;;6219474;23;20008;-62
2023/05/01 07:21:41;;;;;;;13.00;5.57;;;;;;;;;;6219917;23;20024;-62
2023/05/01 07:24:07;;;;;;;7.55;3.97;;;;;;;;;;6220542;23;20012;-62
2023/05/01 07:26:33;;;;;;;10.38;4.00;;;;;;;;;;6245875;23;20364;-62
2023/05/01 07:28:59;;;;;;;11.70;3.75;;;;;;;;;;6193549;23;20016;-63
2023/05/01 07:31:25;;;;;;;10.57;4.20;;;;;;;;;;6220886;23;20043;-62
2023/05/01 07:33:52;;;;;;;12.57;3.60;;;;;;;;;;6244850;23;20016;-62
2023/05/01 07:36:19;;;;;;;10.57;3.38;;;;;;;;;;6218796;23;20043;-62
2023/05/01 07:38:45;;;;;;;10.55;3.78;;;;;;;;;;6193955;23;20067;-62
2023/05/01 07:41:11;;;;;;;9.00;3.60;;;;;;;;;;6245894;23;20022;-62
2023/05/01 07:43:37;;;;;;;12.25;4.05;;;;;;;;;;6219301;23;20055;-62
2023/05/01 07:46:04;;;;;;;10.85;4.35;;;;;;;;;;6218371;23;20016;-62
2023/05/01 07:48:31;;;;;;;10.73;4.53;;;;;;;;;;6193806;23;20012;-62
2023/05/01 07:51:01;;;;;;;9.90;3.50;;;;;;;;;;6244955;23;20070;-63
2023/05/01 07:53:27;;;;;;;7.70;3.57;;;;;;;;;;6194688;23;20047;-62
2023/05/01 07:55:53;;;;;;;10.25;4.22;;;;;;;;;;6219203;23;20023;-62
2023/05/01 07:58:19;;;;;;;7.38;3.25;;;;;;;;;;6219273;23;20429;-62
2023/05/01 08:00:45;;;;;;;7.75;3.83;;;;;;;;;;6246410;23;20018;-62
2023/05/01 08:03:11;;;;;;;11.07;4.43;;;;;;;;;;6218960;23;20087;-62
2023/05/01 08:05:41;;;;;;;7.82;3.50;;;;;;;;;;6245638;23;20459;-62
2023/05/01 08:08:08;;;;;;;7.43;3.70;;;;;;;;;;6194847;23;20024;-63
2023/05/01 08:10:34;;;;;;;14.75;5.32;;;;;;;;;;6245104;23;20015;-62
2023/05/01 08:13:00;;;;;;;10.07;4.10;;;16.10;99.90;;;;;;6193744;23;20047;-62
2023/05/01 08:15:28;;;;;;;10.07;3.75;;;16.10;99.90;;;;;;6220458;22;20270;-62
2023/05/01 08:17:55;;;;;;;7.78;3.78;;;;;;;;;;6233659;22;20023;-62
2023/05/01 08:20:21;;;;;;;8.98;4.30;;;;;;;;;;6222866;22;20024;-62
2023/05/01 08:22:47;;;;;;;10.48;4.25;;;;;;;;;;6244706;23;20043;-62
2023/05/01 08:25:13;;;;;;;8.00;4.43;;;16.70;99.90;;;;;;6246247;23;20019;-62
2023/05/01 08:27:39;;;;;;;8.90;3.70;;;;;;;;;;6243961;23;20118;-62
2023/05/01 08:30:06;;;;;;;9.93;3.45;;;;;;;;;;6246691;23;20012;-62
2023/05/01 08:32:32;;;;;;;7.53;3.50;;;;;;;;;;6219285;23;20024;-62
2023/05/01 08:34:58;;;;;;;10.98;4.43;;;16.70;99.90;;;;;;6245788;22;20020;-62
2023/05/01 08:37:24;;;;;;;6.22;3.28;;;;;;;;;;6246193;23;20087;-62
2023/05/01 08:39:50;;;;;;;9.65;3.55;;;;;;;;;;6219404;23;20020;-62
2023/05/01 08:42:16;;;;;;;7.45;3.85;;;16.70;99.90;;;;;;6247161;23;20008;-62
2023/05/01 08:44:45;;;;;;;8.77;3.50;;;16.40;99.90;;;;;;6246806;23;20016;-62
2023/05/01 08:47:16;;;;;;;10.25;3.95;;;16.80;99.90;;;;;;6246389;23;20074;-64
2023/05/01 08:49:42;;;;;;;8.82;3.47;;;17.00;99.90;;;;;;6246419;23;20012;-63
2023/05/01 08:52:12;;;;;;;5.75;3.17;;;17.20;99.90;;;;;;6221119;23;20012;-63
2023/05/01 08:54:42;;;;;;;7.85;3.65;;;17.80;99.90;;;;;;6221057;23;20016;-63
2023/05/01 08:57:10;;;;;;;7.65;3.25;;;18.20;99.90;;;;;;6221132;23;20027;-63
2023/05/01 08:59:37;;;;;;;8.80;3.63;;;18.40;99.90;;;;;;6246259;23;20012;-61
2023/05/01 09:02:07;;;;;;;10.45;3.80;;;18.10;99.90;;;;;;6248513;23;20016;-59
2023/05/01 09:04:38;;;;;;;8.48;3.72;;;18.20;99.90;;;;;;6248458;23;20087;-70
2023/05/01 09:07:04;;;;;;;6.80;3.30;;;;;;;;;;6221464;23;20016;-72
2023/05/01 09:09:31;;;;;;;7.53;3.30;;;18.70;99.90;;;;;;6246289;23;20046;-66
2023/05/01 09:12:26;;;;;;;8.50;3.42;;;18.10;99.90;;;;;;6245775;23;20083;-62
2023/05/01 09:14:55;;;;;;;6.13;2.85;;;18.10;99.90;;;;;;6243052;23;20055;-67
2023/05/01 09:17:22;;;;;;;18.95;5.85;;;;;;;;;;6247726;23;20016;-64
2023/05/01 09:19:51;;;;;;;6.25;3.20;;;18.40;99.90;;;;;;6247997;23;20087;-66
2023/05/01 09:22:17;;;;;;;10.23;3.10;;;18.50;99.90;;;;;;6246356;23;20012;-67
2023/05/01 09:24:44;;;;;;;7.22;2.95;;;;;;;;;;6245831;23;20325;-61
2023/05/01 09:27:12;;;;;;;7.80;3.60;;;18.10;99.90;;;;;;6247583;22;20027;-58
2023/05/01 09:29:38;;;;;;;5.60;2.95;;;;;;;;;;6248241;23;20317;-68
2023/05/01 09:32:27;;;;;;;10.13;3.20;;;18.70;99.90;;;;;;6245467;23;20483;-74
2023/05/01 09:34:55;;;;;;;5.90;2.83;;;18.80;99.90;;;;;;6245686;23;20039;-72
2023/05/01 09:37:26;;;;;;;6.55;2.90;;;19.00;99.90;;;;;;6245848;23;20022;-70
2023/05/01 09:40:06;;;;;;;9.43;3.67;;;19.20;99.90;;;;;;6219554;23;20020;-72
2023/05/01 09:42:33;;;;;;;4.57;2.30;;;19.40;99.90;;;;;;6244331;23;20012;-72
2023/05/01 09:45:12;;;;;;;6.25;1.98;;;19.60;99.90;;;;;;6244670;23;20023;-72
2023/05/01 09:47:38;;;;;;;5.47;2.97;;;;;;;;;;6247683;23;20448;-70
2023/05/01 09:50:05;;;;;;;4.57;2.30;;;18.90;99.90;;;;;;6245249;23;20016;-75
2023/05/01 09:52:34;;;;;;;5.68;2.63;;;;;;;;;;6246067;23;20055;-63
2023/05/01 09:55:16;;;;;;;7.78;3.03;;;;;;;;;;6245749;23;20023;-66
2023/05/01 09:57:44;;;;;;;5.13;2.65;;;19.00;99.90;;;;;;6244767;23;20030;-68
2023/05/01 10:00:12;;;;;;;5.75;2.85;;;19.20;99.90;;;;;;6245718;23;20082;-65
2023/05/01 10:02:39;;;;;;;6.07;3.03;;;;;;;;;;6245127;23;20020;-65
2023/05/01 10:07:58;;;;;;;4.35;3.28;;;;;;;;;;6217089;22;20053;-64
2023/05/01 10:10:24;;;;;;;6.80;3.25;;;;;;;;;;6241400;23;20107;-63
2023/05/01 10:12:50;;;;;;;5.78;2.97;;;;;;;;;;6243383;23;20031;-65
2023/05/01 10:15:16;;;;;;;7.75;3.20;;;;;;;;;;6245216;23;20016;-65
2023/05/01 10:17:43;;;;;;;7.15;3.42;;;18.80;99.90;;;;;;6243094;23;20093;-66
2023/05/01 10:20:12;;;;;;;6.35;3.40;;;;;;;;;;6244836;23;20012;-65
2023/05/01 10:22:39;;;;;;;9.02;4.28;;;;;;;;;;6216512;23;20030;-66
2023/05/01 10:25:10;;;;;;;12.50;4.20;;;;;;;;;;6243079;23;20012;-68
2023/05/01 10:27:38;;;;;;;6.95;3.17;;;;;;;;;;6243859;22;20020;-66
2023/05/01 10:30:05;;;;;;;6.80;3.42;;;;;;;;;;6244003;23;20020;-67
2023/05/01 10:32:31;;;;;;;11.65;3.92;;;;;;;;;;6244353;22;20492;-65
2023/05/01 10:35:00;;;;;;;10.55;4.00;;;;;;;;;;6243946;23;20020;-60
2023/05/01 10:37:50;;;;;;;8.98;4.10;;;19.30;99.90;;;;;;6217539;23;20024;-60
2023/05/01 10:40:37;;;;;;;5.53;3.30;;;19.30;99.90;;;;;;6241761;23;20098;-61
2023/05/01 10:43:17;;;;;;;8.30;3.60;;;;;;;;;;6243716;23;20055;-64
2023/05/01 10:45:47;;;;;;;8.90;4.15;;;;;;;;;;6244714;22;20020;-59
2023/05/01 10:48:38;;;;;;;7.32;3.92;;;19.40;99.90;;;;;;6242177;23;20024;-70
2023/05/01 10:51:16;;;;;;;10.60;3.67;;;;;;;;;;6242227;23;20056;-61
2023/05/01 10:53:47;;;;;;;5.47;3.63;;;19.80;99.90;;;;;;6243812;23;20162;-62
2023/05/01 10:56:24;;;;;;;11.75;4.38;;;;;;;;;;6242537;23;20424;-61
2023/05/01 10:58:50;;;;;;;8.80;4.30;;;;;;;;;;6244729;22;20085;-63
2023/05/01 11:01:38;;;;;;;7.93;2.10;;;19.60;99.90;;;;;;6217440;23;20100;-62
2023/05/01 11:04:09;;;;;;;4.38;2.20;;;;;;;;;;6217632;23;20020;-61
2023/05/01 11:06:36;;;;;;;;;;;19.80;99.90;;;;;;6243466;22;20024;-62
2023/05/01 11:09:22;;;;;;;3.30;1.80;;;;;;;;;;6242568;23;19954;-63
2023/05/01 11:11:48;;;;;;;4.45;2.28;;;19.80;99.90;;;;;;6244335;23;20378;-62
2023/05/01 11:14:14;;;;;;;6.00;2.10;;;;;;;;;;6216564;23;20099;-63
2023/05/01 11:16:41;;;;;;;3.40;1.33;;;;;;;;;;6244946;23;20020;-62
2023/05/01 11:19:08;;;;;;;2.95;1.00;;;;;;;;;;6243519;23;20013;-60
2023/05/01 11:21:38;;;;;;;2.97;1.05;;;;;;;;;;6243105;22;20071;-58
2023/05/01 11:24:05;;;;;;;5.28;1.25;;;;;;;;;;6242340;23;20024;-58
2023/05/01 11:26:31;;;;;;;2.67;1.00;;;;;;;;;;6244453;22;20344;-58
2023/05/01 11:28:59;;;;;;;2.45;1.27;;;;;;;;;;6217469;23;20020;-60
2023/05/01 11:31:28;;;;;;;3.97;0.70;;;;;;;;;;6244709;23;20047;-59
2023/05/01 11:33:58;;;;;;;2.63;0.85;;;;;;;;;;6244505;23;20057;-59
2023/05/01 11:36:24;;;;;;;2.67;1.23;;;;;;;;;;6217469;23;20016;-57
2023/05/01 11:38:53;;;;;;;4.15;0.90;;;;;;;;;;6217970;23;20082;-57
2023/05/01 11:41:20;;;;;;;3.00;0.80;;;;;;;;;;6244342;22;20024;-59
2023/05/01 11:43:57;;;;;;;1.38;0.80;;;;;;;;;;6244450;22;20020;-60
2023/05/01 11:46:26;;;;;;;8.25;1.40;;;;;;;;;;6217909;23;20020;-59
2023/05/01 11:48:53;;;;;;;5.25;0.88;;;;;;;;;;6217846;23;20325;-59
2023/05/01 11:51:19;;;;;;;6.50;1.20;;;;;;;;;;6244141;22;20587;-56
2023/05/01 11:54:00;;;;;;;4.63;1.48;;;;;;;;;;6242532;23;20015;-65
2023/05/01 11:56:27;;;;;;;3.22;1.25;;;;;;;;;;6246422;23;20031;-57
2023/05/01 11:58:53;;;;;;;2.85;1.10;;;;;;;;;;6246281;23;20023;-57
2023/05/01 12:01:19;;;;;;;2.85;1.13;;;;;;;;;;6244992;23;20023;-56
2023/05/01 12:03:45;;;;;;;2.83;1.20;;;;;;;;;;6243321;23;20436;-60
2023/05/01 12:06:12;;;;;;;4.63;1.52;;;;;;;;;;6243517;23;20503;-58
2023/05/01 12:08:52;;;;;;;4.15;1.20;;;20.20;99.90;;;;;;6245473;23;20016;-57
2023/05/01 12:11:19;;;;;;;2.67;1.33;;;;;;;;;;6245267;23;20016;-57
2023/05/01 12:13:47;;;;;;;3.05;1.60;;;;;;;;;;6244580;22;20027;-57
2023/05/01 12:16:13;;;;;;;2.40;1.10;;;;;;;;;;6243087;23;20023;-57
2023/05/01 12:18:39;;;;;;;4.28;1.10;;;;;;;;;;6245587;23;20031;-57
2023/05/01 12:21:05;;;;;;;2.97;1.20;;;;;;;;;;6246067;23;20023;-56
2023/05/01 12:23:33;;;;;;;3.78;1.50;;;;;;;;;;6243470;23;20027;-56
2023/05/01 12:25:59;;;;;;;2.97;1.35;;;;;;;;;;6242745;23;20483;-56
2023/05/01 12:28:26;;;;;;;4.72;2.00;;;;;;;;;;6243063;23;20058;-56
2023/05/01 12:30:56;;;;;;;4.55;1.83;;;;;;;;;;6244719;22;20074;-56
2023/05/01 12:33:22;;;;;;;4.22;1.50;;;;;;;;;;6243644;23;20443;-57
2023/05/01 12:35:49;;;;;;;8.18;2.30;;;;;;;;;;6245579;23;20047;-57
2023/05/01 12:38:15;;;;;;;7.50;2.22;;;;;;;;;;6245161;22;20012;-57
2023/05/01 12:40:58;;;;;;;5.07;2.30;;;;;;;;;;6244174;22;20028;-56
2023/05/01 12:43:31;;;;;;;5.95;2.08;;;;;;;;;;6244658;22;20020;-56
2023/05/01 12:45:57;;;;;;;6.72;2.20;;;;;;;;;;6243524;23;20016;-56
2023/05/01 12:48:24;;;;;;;4.65;2.22;;;;;;;;;;6244729;23;20020;-56
2023/05/01 12:50:53;;;;;;;5.53;2.35;;;;;;;;;;6244728;23;20035;-59
2023/05/01 12:53:23;;;;;;;5.72;2.20;;;;;;;;;;6242616;23;20020;-61
2023/05/01 12:55:53;;;;;;;7.75;2.50;;;;;;;;;;6244552;23;20020;-59
2023/05/01 12:58:19;;;;;;;6.63;2.72;;;;;;;;;;6245246;23;20384;-59
2023/05/01 13:00:47;;;;;;;6.75;2.40;;;;;;;;;;6245900;23;20024;-59
2023/05/01 13:03:16;;;;;;;6.35;3.00;;;;;;;;;;6243073;23;20066;-60
2023/05/01 13:06:01;;;;;;;6.40;2.60;;;18.80;99.90;;;;;;6244671;22;20051;-59
2023/05/01 13:08:31;;;;;;;9.10;2.78;;;;;;;;;;6245478;23;20380;-60
2023/05/01 13:11:00;;;;;;;6.18;3.00;;;;;;;;;;6244941;23;20020;-60
2023/05/01 13:13:31;;;;;;;7.75;3.08;;;;;;;;;;6243648;23;20020;-59
2023/05/01 13:16:25;;;;;;;8.18;3.03;;;;;;;;;;6244067;22;20466;-60
2023/05/01 13:18:52;;;;;;;5.55;3.00;;;;;;;;;;6239950;23;20016;-60
2023/05/01 13:21:22;;;;;;;5.20;3.05;;;;;;;;;;6245377;22;20055;-60
2023/05/01 13:23:58;;;;;;;5.82;3.08;;;;;;;;;;6242660;23;20020;-59
2023/05/01 13:26:26;;;;;;;9.48;3.63;;;;;;;;;;6242931;23;20074;-60
2023/05/01 13:28:56;;;;;;;6.13;3.17;;;;;;;;;;6244736;22;20848;-59
2023/05/01 13:31:22;;;;;;;6.28;3.28;;;;;;;;;;6245609;22;20139;-60
2023/05/01 13:33:50;;;;;;;7.50;3.00;;;;;;;;;;6242702;23;20020;-60
2023/05/01 13:36:16;;;;;;;7.85;3.60;;;;;;;;;;6244863;23;20336;-60
2023/05/01 13:38:44;;;;;;;7.53;4.20;;;;;;;;;;6245165;23;20019;-60
2023/05/01 13:41:20;;;;;;;9.05;3.97;;;;;;;;;;6245315;22;20028;-60
2023/05/01 13:43:46;;;;;;;9.05;4.10;;;;;;;;;;6243246;23;20388;-59
2023/05/01 13:46:14;;;;;;;6.80;3.53;;;;;;;;;;6244969;23;20024;-60
2023/05/01 13:48:40;;;;;;;8.73;3.65;;;;;;;;;;6244662;22;20097;-60
2023/05/01 13:51:09;;;;;;;6.80;3.47;;;;;;;;;;6243588;23;20026;-60
2023/05/01 13:53:36;;;;;;;6.53;3.72;;;;;;;;;;6241548;23;20067;-60
2023/05/01 13:56:05;;;;;;;7.80;3.30;;;;;;;;;;6245576;23;20024;-60
2023/05/01 13:58:33;;;;;;;6.85;3.33;;;;;;;;;;6242452;23;20050;-60
2023/05/01 14:00:59;;;;;;;5.85;3.55;;;;;;;;;;6244595;22;20020;-60
2023/05/01 14:03:25;;;;;;;11.98;3.85;;;;;;;;;;6244857;23;20012;-60
2023/05/01 14:05:51;;;;;;;6.55;3.60;;;;;;;;;;6244964;22;20012;-60
2023/05/01 14:08:21;;;;;;;7.72;3.38;;;;;;;;;;6242575;23;20096;-60
2023/05/01 14:10:47;;;;;;;8.27;3.47;;;;;;;;;;6217591;23;20051;-59
2023/05/01 14:13:17;;;;;;;7.50;3.67;;;;;;;;;;6243728;23;20327;-60
2023/05/01 14:15:43;;;;;;;8.70;3.67;;;;;;;;;;6245053;22;20325;-60
2023/05/01 14:18:11;;;;;;;7.00;3.47;;;;;;;;;;6244508;23;20241;-60
2023/05/01 14:20:38;;;;;;;7.88;4.25;;;;;;;;;;6242938;23;20082;-60
2023/05/01 14:23:05;;;;;;;8.50;3.88;;;;;;;;;;6244236;23;20027;-60
2023/05/01 14:25:33;;;;;;;7.35;4.38;;;;;;;;;;6243154;23;20050;-60
2023/05/01 14:28:00;;;;;;;7.78;4.10;;;;;;;;;;6244062;22;20444;-60
2023/05/01 14:30:37;;;;;;;7.00;3.90;;;;;;;;;;6242813;22;20024;-59
2023/05/01 14:33:07;;;;;;;8.23;4.05;;;;;;;;;;6245190;22;20055;-59
2023/05/01 14:35:34;;;;;;;6.68;3.75;;;;;;;;;;6243584;23;20688;-59